Impacts METAR Board INFO
IDs:

KTPA - Tampa Intl Arpt, FL, US

Updated at: 2122 UTC 17 Dec 2017
Potential Impact None Slight Moderate High
Time17/09Z 17/10Z 17/11Z 17/12Z 17/13Z 17/14Z 17/15Z 17/16Z 17/17Z 17/18Z 17/19Z 17/20Z 17/21Z
VIS10 10 10 10 9 10 10 10 10 10 10 10 10
CIG-- -- -- -- -- -- -- -- -- 350 350 350 250
CoverCLRCLRCLRFEWSCTSCTFEWSCTFEWOVCOVCOVCBKN
FltCatVFRVFRVFRVFRVFRVFRVFRVFRVFRVFRVFRVFRVFR
WX--------------------------
WDir807070603070900150140250240230
WSpd6 5 5 5 4 4 6 4 7 9 6 6 4
WGst-- -- -- -- -- -- -- -- -- -- -- -- --
Raw hourly METARs
KTPA 170853Z 08006KT 10SM CLR 15/12 A3023 RMK AO2 SLP238 T01500122 58008
KTPA 170953Z 07005KT 10SM CLR 15/12 A3022 RMK AO2 SLP233 T01500117
KTPA 171053Z 07005KT 10SM CLR 14/12 A3022 RMK AO2 SLP234 T01440117
KTPA 171153Z 06005KT 10SM FEW035 FEW250 14/12 A3023 RMK AO2 SLP236 T01440117 10167 20144 55002
KTPA 171253Z 03004KT 9SM SCT028 SCT340 15/12 A3025 RMK AO2 SLP244 T01500122
KTPA 171353Z 07004KT 10SM SCT030 SCT350 17/13 A3027 RMK AO2 SLP249 T01670133
KTPA 171453Z 09006KT 10SM FEW025 FEW350 21/15 A3027 RMK AO2 SLP250 T02060150 51014
KTPA 171553Z VRB04KT 10SM SCT350 23/16 A3027 RMK AO2 SLP251 T02330161
KTPA 171653Z 15007KT 10SM FEW035 FEW350 25/16 A3025 RMK AO2 SLP244 T02500161
KTPA 171753Z 14009KT 10SM FEW038 OVC350 26/16 A3022 RMK AO2 SLP232 T02560156 10261 20144 58018
KTPA 171853Z 25006KT 10SM FEW037 OVC350 25/16 A3020 RMK AO2 SLP225 T02500161
KTPA 171953Z 24006KT 10SM FEW040 OVC350 26/17 A3019 RMK AO2 SLP223 T02610167
KTPA 172053Z 23004KT 10SM FEW040 BKN250 26/16 A3020 RMK AO2 SLP225 T02560161 55007